sensor_id;sensor_type;location;lat;lon;timestamp;temperature;humidity
1025;DHT22;501;48.214;11.350;2024-01-16T00:02:24;-1.60;34.60
1025;DHT22;501;48.214;11.350;2024-01-16T00:04:50;-1.60;34.10
1025;DHT22;501;48.214;11.350;2024-01-16T00:07:15;-1.60;34.10
1025;DHT22;501;48.214;11.350;2024-01-16T00:09:41;-1.60;34.40
1025;DHT22;501;48.214;11.350;2024-01-16T00:12:07;-1.60;34.00
1025;DHT22;501;48.214;11.350;2024-01-16T00:14:36;-1.60;34.40
1025;DHT22;501;48.214;11.350;2024-01-16T00:17:02;-1.60;34.00
1025;DHT22;501;48.214;11.350;2024-01-16T00:19:28;-1.60;34.20
1025;DHT22;501;48.214;11.350;2024-01-16T00:21:53;-1.60;33.60
1025;DHT22;501;48.214;11.350;2024-01-16T00:24:19;-1.70;32.80
1025;DHT22;501;48.214;11.350;2024-01-16T00:26:44;-1.70;32.80
1025;DHT22;501;48.214;11.350;2024-01-16T00:29:11;-1.70;33.30
1025;DHT22;501;48.214;11.350;2024-01-16T00:31:38;-1.80;33.10
1025;DHT22;501;48.214;11.350;2024-01-16T00:34:04;-1.80;32.90
1025;DHT22;501;48.214;11.350;2024-01-16T00:36:29;-1.90;32.80
1025;DHT22;501;48.214;11.350;2024-01-16T00:38:56;-1.90;33.30
1025;DHT22;501;48.214;11.350;2024-01-16T00:41:21;-1.90;33.40
1025;DHT22;501;48.214;11.350;2024-01-16T00:43:47;-2.00;33.00
1025;DHT22;501;48.214;11.350;2024-01-16T00:46:13;-2.00;33.00
1025;DHT22;501;48.214;11.350;2024-01-16T00:48:39;-2.10;33.00
1025;DHT22;501;48.214;11.350;2024-01-16T00:51:04;-2.20;32.70
1025;DHT22;501;48.214;11.350;2024-01-16T00:53:30;-2.30;33.10
1025;DHT22;501;48.214;11.350;2024-01-16T00:55:56;-2.30;33.00
1025;DHT22;501;48.214;11.350;2024-01-16T00:58:22;-2.40;32.90
1025;DHT22;501;48.214;11.350;2024-01-16T01:00:48;-2.40;33.20
1025;DHT22;501;48.214;11.350;2024-01-16T01:03:14;-2.50;33.20
1025;DHT22;501;48.214;11.350;2024-01-16T01:05:39;-2.60;33.40
1025;DHT22;501;48.214;11.350;2024-01-16T01:08:05;-2.60;33.50
1025;DHT22;501;48.214;11.350;2024-01-16T01:10:31;-2.60;33.40
1025;DHT22;501;48.214;11.350;2024-01-16T01:12:57;-2.70;33.40
1025;DHT22;501;48.214;11.350;2024-01-16T01:15:23;-2.70;33.70
1025;DHT22;501;48.214;11.350;2024-01-16T01:17:49;-2.70;34.10
1025;DHT22;501;48.214;11.350;2024-01-16T01:20:16;-2.70;33.70
1025;DHT22;501;48.214;11.350;2024-01-16T01:22:43;-2.70;34.30
1025;DHT22;501;48.214;11.350;2024-01-16T01:25:09;-2.70;33.90
1025;DHT22;501;48.214;11.350;2024-01-16T01:27:36;-2.70;33.90
1025;DHT22;501;48.214;11.350;2024-01-16T01:30:01;-2.70;33.70
1025;DHT22;501;48.214;11.350;2024-01-16T01:32:27;-2.70;34.50
1025;DHT22;501;48.214;11.350;2024-01-16T01:34:53;-2.70;33.50
1025;DHT22;501;48.214;11.350;2024-01-16T01:37:18;-2.70;33.90
1025;DHT22;501;48.214;11.350;2024-01-16T01:39:44;-2.70;33.90
1025;DHT22;501;48.214;11.350;2024-01-16T01:42:10;-2.70;33.60
1025;DHT22;501;48.214;11.350;2024-01-16T01:44:35;-2.70;33.40
1025;DHT22;501;48.214;11.350;2024-01-16T01:47:01;-2.70;33.50
1025;DHT22;501;48.214;11.350;2024-01-16T01:49:27;-2.70;33.30
1025;DHT22;501;48.214;11.350;2024-01-16T01:51:54;-2.70;33.30
1025;DHT22;501;48.214;11.350;2024-01-16T01:54:21;-2.70;33.60
1025;DHT22;501;48.214;11.350;2024-01-16T01:56:49;-2.70;33.80
1025;DHT22;501;48.214;11.350;2024-01-16T01:59:17;-2.60;34.00
1025;DHT22;501;48.214;11.350;2024-01-16T02:01:47;-2.60;33.60
1025;DHT22;501;48.214;11.350;2024-01-16T02:04:17;-2.60;33.10
1025;DHT22;501;48.214;11.350;2024-01-16T02:06:43;-2.60;32.50
1025;DHT22;501;48.214;11.350;2024-01-16T02:09:12;-2.60;32.70
1025;DHT22;501;48.214;11.350;2024-01-16T02:11:41;-2.50;32.80
1025;DHT22;501;48.214;11.350;2024-01-16T02:14:07;-2.50;32.60
1025;DHT22;501;48.214;11.350;2024-01-16T02:16:40;-2.50;32.20
1025;DHT22;501;48.214;11.350;2024-01-16T02:19:07;-2.50;32.60
1025;DHT22;501;48.214;11.350;2024-01-16T02:21:45;-2.50;32.30
1025;DHT22;501;48.214;11.350;2024-01-16T02:24:12;-2.50;32.50
1025;DHT22;501;48.214;11.350;2024-01-16T02:26:39;-2.50;32.10
1025;DHT22;501;48.214;11.350;2024-01-16T02:29:05;-2.50;32.50
1025;DHT22;501;48.214;11.350;2024-01-16T02:31:32;-2.50;32.30
1025;DHT22;501;48.214;11.350;2024-01-16T02:33:57;-2.50;32.30
1025;DHT22;501;48.214;11.350;2024-01-16T02:36:24;-2.50;32.20
1025;DHT22;501;48.214;11.350;2024-01-16T02:38:50;-2.50;32.30
1025;DHT22;501;48.214;11.350;2024-01-16T02:41:16;-2.50;32.20
1025;DHT22;501;48.214;11.350;2024-01-16T02:43:42;-2.50;32.10
1025;DHT22;501;48.214;11.350;2024-01-16T02:46:08;-2.50;32.30
1025;DHT22;501;48.214;11.350;2024-01-16T02:48:34;-2.50;32.30
1025;DHT22;501;48.214;11.350;2024-01-16T02:51:01;-2.50;31.90
1025;DHT22;501;48.214;11.350;2024-01-16T02:53:26;-2.50;32.00
1025;DHT22;501;48.214;11.350;2024-01-16T02:55:54;-2.50;32.30
1025;DHT22;501;48.214;11.350;2024-01-16T02:58:20;-2.50;32.30
1025;DHT22;501;48.214;11.350;2024-01-16T03:00:46;-2.50;32.30
1025;DHT22;501;48.214;11.350;2024-01-16T03:03:12;-2.50;32.40
1025;DHT22;501;48.214;11.350;2024-01-16T03:05:40;-2.50;32.30
1025;DHT22;501;48.214;11.350;2024-01-16T03:08:06;-2.50;32.20
1025;DHT22;501;48.214;11.350;2024-01-16T03:10:32;-2.50;32.40
1025;DHT22;501;48.214;11.350;2024-01-16T03:12:58;-2.50;31.90
1025;DHT22;501;48.214;11.350;2024-01-16T03:15:23;-2.50;31.80
1025;DHT22;501;48.214;11.350;2024-01-16T03:17:49;-2.50;32.10
1025;DHT22;501;48.214;11.350;2024-01-16T03:20:15;-2.50;32.10
1025;DHT22;501;48.214;11.350;2024-01-16T03:22:41;-2.50;32.10
1025;DHT22;501;48.214;11.350;2024-01-16T03:25:08;-2.50;31.90
1025;DHT22;501;48.214;11.350;2024-01-16T03:27:34;-2.50;31.90
1025;DHT22;501;48.214;11.350;2024-01-16T03:30:01;-2.50;32.00
1025;DHT22;501;48.214;11.350;2024-01-16T03:32:27;-2.50;31.80
1025;DHT22;501;48.214;11.350;2024-01-16T03:34:53;-2.50;31.70
1025;DHT22;501;48.214;11.350;2024-01-16T03:37:18;-2.50;31.70
1025;DHT22;501;48.214;11.350;2024-01-16T03:39:45;-2.50;31.70
1025;DHT22;501;48.214;11.350;2024-01-16T03:42:10;-2.50;31.90
1025;DHT22;501;48.214;11.350;2024-01-16T03:44:41;-2.50;32.00
1025;DHT22;501;48.214;11.350;2024-01-16T03:47:07;-2.50;32.50
1025;DHT22;501;48.214;11.350;2024-01-16T03:49:33;-2.50;31.70
1025;DHT22;501;48.214;11.350;2024-01-16T03:51:58;-2.50;31.60
1025;DHT22;501;48.214;11.350;2024-01-16T03:54:24;-2.50;31.40
1025;DHT22;501;48.214;11.350;2024-01-16T03:56:51;-2.60;31.30
1025;DHT22;501;48.214;11.350;2024-01-16T03:59:16;-2.60;31.30
1025;DHT22;501;48.214;11.350;2024-01-16T04:01:42;-2.60;31.50
1025;DHT22;501;48.214;11.350;2024-01-16T04:04:10;-2.60;31.70
1025;DHT22;501;48.214;11.350;2024-01-16T04:06:36;-2.60;31.80
1025;DHT22;501;48.214;11.350;2024-01-16T04:09:02;-2.60;31.50
1025;DHT22;501;48.214;11.350;2024-01-16T04:11:28;-2.60;31.70
1025;DHT22;501;48.214;11.350;2024-01-16T04:13:55;-2.60;31.70
1025;DHT22;501;48.214;11.350;2024-01-16T04:16:20;-2.60;31.40
1025;DHT22;501;48.214;11.350;2024-01-16T04:18:46;-2.70;31.70
1025;DHT22;501;48.214;11.350;2024-01-16T04:21:11;-2.70;31.60
1025;DHT22;501;48.214;11.350;2024-01-16T04:23:37;-2.70;32.00
1025;DHT22;501;48.214;11.350;2024-01-16T04:26:03;-2.70;31.70
1025;DHT22;501;48.214;11.350;2024-01-16T04:28:28;-2.70;31.70
1025;DHT22;501;48.214;11.350;2024-01-16T04:30:54;-2.60;31.70
1025;DHT22;501;48.214;11.350;2024-01-16T04:33:20;-2.70;31.60
1025;DHT22;501;48.214;11.350;2024-01-16T04:35:45;-2.70;31.70
1025;DHT22;501;48.214;11.350;2024-01-16T04:38:11;-2.70;31.60
1025;DHT22;501;48.214;11.350;2024-01-16T04:40:37;-2.70;32.40
1025;DHT22;501;48.214;11.350;2024-01-16T04:43:02;-2.70;31.80
1025;DHT22;501;48.214;11.350;2024-01-16T04:45:28;-2.70;31.50
1025;DHT22;501;48.214;11.350;2024-01-16T04:47:54;-2.70;31.70
1025;DHT22;501;48.214;11.350;2024-01-16T04:50:20;-2.70;31.50
1025;DHT22;501;48.214;11.350;2024-01-16T04:52:45;-2.70;31.60
1025;DHT22;501;48.214;11.350;2024-01-16T04:55:11;-2.70;31.40
1025;DHT22;501;48.214;11.350;2024-01-16T04:57:37;-2.70;31.20
1025;DHT22;501;48.214;11.350;2024-01-16T05:00:03;-2.70;31.40
1025;DHT22;501;48.214;11.350;2024-01-16T05:02:35;-2.70;31.30
1025;DHT22;501;48.214;11.350;2024-01-16T05:05:01;-2.70;31.20
1025;DHT22;501;48.214;11.350;2024-01-16T05:07:26;-2.70;31.20
1025;DHT22;501;48.214;11.350;2024-01-16T05:09:52;-2.70;31.30
1025;DHT22;501;48.214;11.350;2024-01-16T05:12:19;-2.70;31.20
1025;DHT22;501;48.214;11.350;2024-01-16T05:14:44;-2.80;31.40
1025;DHT22;501;48.214;11.350;2024-01-16T05:17:10;-2.80;31.50
1025;DHT22;501;48.214;11.350;2024-01-16T05:19:37;-2.90;31.70
1025;DHT22;501;48.214;11.350;2024-01-16T05:22:02;-2.90;31.80
1025;DHT22;501;48.214;11.350;2024-01-16T05:24:29;-3.00;31.70
1025;DHT22;501;48.214;11.350;2024-01-16T05:26:54;-3.00;32.20
1025;DHT22;501;48.214;11.350;2024-01-16T05:29:20;-3.00;32.40
1025;DHT22;501;48.214;11.350;2024-01-16T05:31:46;-3.10;32.40
1025;DHT22;501;48.214;11.350;2024-01-16T05:34:11;-3.10;32.80
1025;DHT22;501;48.214;11.350;2024-01-16T05:36:37;-3.10;33.00
1025;DHT22;501;48.214;11.350;2024-01-16T05:39:03;-3.20;32.90
1025;DHT22;501;48.214;11.350;2024-01-16T05:41:35;-3.20;33.00
1025;DHT22;501;48.214;11.350;2024-01-16T05:44:01;-3.20;33.00
1025;DHT22;501;48.214;11.350;2024-01-16T05:46:32;-3.30;33.10
1025;DHT22;501;48.214;11.350;2024-01-16T05:48:58;-3.30;33.20
1025;DHT22;501;48.214;11.350;2024-01-16T05:51:26;-3.30;33.20
1025;DHT22;501;48.214;11.350;2024-01-16T05:53:52;-3.30;33.20
1025;DHT22;501;48.214;11.350;2024-01-16T05:56:18;-3.30;33.10
1025;DHT22;501;48.214;11.350;2024-01-16T05:58:43;-3.30;32.90
1025;DHT22;501;48.214;11.350;2024-01-16T06:01:10;-3.30;33.00
1025;DHT22;501;48.214;11.350;2024-01-16T06:03:39;-3.30;33.20
1025;DHT22;501;48.214;11.350;2024-01-16T06:06:05;-3.30;33.10
1025;DHT22;501;48.214;11.350;2024-01-16T06:08:31;-3.30;33.30
1025;DHT22;501;48.214;11.350;2024-01-16T06:10:56;-3.30;33.40
1025;DHT22;501;48.214;11.350;2024-01-16T06:13:22;-3.30;33.20
1025;DHT22;501;48.214;11.350;2024-01-16T06:15:48;-3.30;33.20
1025;DHT22;501;48.214;11.350;2024-01-16T06:18:13;-3.20;33.10
1025;DHT22;501;48.214;11.350;2024-01-16T06:20:39;-3.20;32.60
1025;DHT22;501;48.214;11.350;2024-01-16T06:23:05;-3.20;32.60
1025;DHT22;501;48.214;11.350;2024-01-16T06:25:30;-3.20;32.30
1025;DHT22;501;48.214;11.350;2024-01-16T06:27:57;-3.10;32.60
1025;DHT22;501;48.214;11.350;2024-01-16T06:30:23;-3.10;32.60
1025;DHT22;501;48.214;11.350;2024-01-16T06:32:50;-3.10;32.60
1025;DHT22;501;48.214;11.350;2024-01-16T06:35:16;-3.10;32.60
1025;DHT22;501;48.214;11.350;2024-01-16T06:37:42;-3.10;32.50
1025;DHT22;501;48.214;11.350;2024-01-16T06:40:08;-3.10;32.50
1025;DHT22;501;48.214;11.350;2024-01-16T06:42:34;-3.10;32.40
1025;DHT22;501;48.214;11.350;2024-01-16T06:45:01;-3.10;32.40
1025;DHT22;501;48.214;11.350;2024-01-16T06:47:27;-3.10;32.20
1025;DHT22;501;48.214;11.350;2024-01-16T06:49:52;-3.10;32.30
1025;DHT22;501;48.214;11.350;2024-01-16T06:52:19;-3.10;32.30
1025;DHT22;501;48.214;11.350;2024-01-16T06:54:44;-3.20;32.20
1025;DHT22;501;48.214;11.350;2024-01-16T06:57:10;-3.20;32.40
1025;DHT22;501;48.214;11.350;2024-01-16T06:59:36;-3.20;32.60
1025;DHT22;501;48.214;11.350;2024-01-16T07:02:02;-3.20;32.70
1025;DHT22;501;48.214;11.350;2024-01-16T07:04:28;-3.20;32.60
1025;DHT22;501;48.214;11.350;2024-01-16T07:06:54;-3.20;32.80
1025;DHT22;501;48.214;11.350;2024-01-16T07:09:20;-3.20;32.80
1025;DHT22;501;48.214;11.350;2024-01-16T07:11:47;-3.20;32.90
1025;DHT22;501;48.214;11.350;2024-01-16T07:14:13;-3.20;32.90
1025;DHT22;501;48.214;11.350;2024-01-16T07:16:38;-3.20;33.00
1025;DHT22;501;48.214;11.350;2024-01-16T07:19:04;-3.20;33.30
1025;DHT22;501;48.214;11.350;2024-01-16T07:21:30;-3.20;33.60
1025;DHT22;501;48.214;11.350;2024-01-16T07:23:56;-3.20;33.80
1025;DHT22;501;48.214;11.350;2024-01-16T07:26:22;-3.20;34.20
1025;DHT22;501;48.214;11.350;2024-01-16T07:28:48;-3.20;34.40
1025;DHT22;501;48.214;11.350;2024-01-16T07:31:14;-3.10;34.50
1025;DHT22;501;48.214;11.350;2024-01-16T07:33:42;-3.10;34.40
1025;DHT22;501;48.214;11.350;2024-01-16T07:36:08;-3.10;35.00
1025;DHT22;501;48.214;11.350;2024-01-16T07:38:35;-3.00;34.30
1025;DHT22;501;48.214;11.350;2024-01-16T07:41:01;-3.00;34.30
1025;DHT22;501;48.214;11.350;2024-01-16T07:43:27;-3.00;34.40
1025;DHT22;501;48.214;11.350;2024-01-16T07:45:55;-2.90;34.40
1025;DHT22;501;48.214;11.350;2024-01-16T07:48:20;-2.90;34.30
1025;DHT22;501;48.214;11.350;2024-01-16T07:50:48;-2.80;34.80
1025;DHT22;501;48.214;11.350;2024-01-16T07:53:13;-2.80;34.00
1025;DHT22;501;48.214;11.350;2024-01-16T07:55:41;-2.80;34.00
1025;DHT22;501;48.214;11.350;2024-01-16T07:58:07;-2.70;34.00
1025;DHT22;501;48.214;11.350;2024-01-16T08:00:33;-2.70;34.00
1025;DHT22;501;48.214;11.350;2024-01-16T08:02:59;-2.60;34.00
1025;DHT22;501;48.214;11.350;2024-01-16T08:05:24;-2.60;33.80
1025;DHT22;501;48.214;11.350;2024-01-16T08:07:54;-2.50;33.60
1025;DHT22;501;48.214;11.350;2024-01-16T08:10:19;-2.40;33.60
1025;DHT22;501;48.214;11.350;2024-01-16T08:12:45;-2.40;33.50
1025;DHT22;501;48.214;11.350;2024-01-16T08:15:11;-2.30;33.40
1025;DHT22;501;48.214;11.350;2024-01-16T08:17:36;-2.30;33.40
1025;DHT22;501;48.214;11.350;2024-01-16T08:20:02;-2.20;33.00
1025;DHT22;501;48.214;11.350;2024-01-16T08:22:28;-2.10;33.10
1025;DHT22;501;48.214;11.350;2024-01-16T08:24:54;-2.10;33.00
1025;DHT22;501;48.214;11.350;2024-01-16T08:27:20;-2.00;32.90
1025;DHT22;501;48.214;11.350;2024-01-16T08:29:46;-1.90;32.80
1025;DHT22;501;48.214;11.350;2024-01-16T08:32:15;-1.90;32.60
1025;DHT22;501;48.214;11.350;2024-01-16T08:34:41;-1.90;33.00
1025;DHT22;501;48.214;11.350;2024-01-16T08:37:07;-1.70;33.10
1025;DHT22;501;48.214;11.350;2024-01-16T08:39:33;-1.70;33.10
1025;DHT22;501;48.214;11.350;2024-01-16T08:41:59;-1.60;32.50
1025;DHT22;501;48.214;11.350;2024-01-16T08:44:27;-1.50;32.30
1025;DHT22;501;48.214;11.350;2024-01-16T08:46:53;-1.50;32.20
1025;DHT22;501;48.214;11.350;2024-01-16T08:49:19;-1.40;31.50
1025;DHT22;501;48.214;11.350;2024-01-16T08:51:44;-1.40;31.50
1025;DHT22;501;48.214;11.350;2024-01-16T08:54:10;-1.30;31.60
1025;DHT22;501;48.214;11.350;2024-01-16T08:56:36;-1.30;31.60
1025;DHT22;501;48.214;11.350;2024-01-16T08:59:02;-1.30;31.60
1025;DHT22;501;48.214;11.350;2024-01-16T09:01:27;-1.20;31.70
1025;DHT22;501;48.214;11.350;2024-01-16T09:03:53;-1.10;31.80
1025;DHT22;501;48.214;11.350;2024-01-16T09:06:19;-1.10;31.70
1025;DHT22;501;48.214;11.350;2024-01-16T09:08:44;-1.00;31.30
1025;DHT22;501;48.214;11.350;2024-01-16T09:11:10;-0.90;31.50
1025;DHT22;501;48.214;11.350;2024-01-16T09:13:37;-0.90;30.70
1025;DHT22;501;48.214;11.350;2024-01-16T09:16:03;-0.80;31.00
1025;DHT22;501;48.214;11.350;2024-01-16T09:18:29;-0.70;31.20
1025;DHT22;501;48.214;11.350;2024-01-16T09:20:55;-0.70;30.80
1025;DHT22;501;48.214;11.350;2024-01-16T09:23:21;-0.60;30.60
1025;DHT22;501;48.214;11.350;2024-01-16T09:25:46;-0.60;30.20
1025;DHT22;501;48.214;11.350;2024-01-16T09:28:12;-0.50;30.60
1025;DHT22;501;48.214;11.350;2024-01-16T09:30:42;-0.40;31.20
1025;DHT22;501;48.214;11.350;2024-01-16T09:33:07;-0.40;30.00
1025;DHT22;501;48.214;11.350;2024-01-16T09:35:35;-0.30;29.80
1025;DHT22;501;48.214;11.350;2024-01-16T09:38:01;-0.30;30.40
1025;DHT22;501;48.214;11.350;2024-01-16T09:40:30;-0.20;31.20
1025;DHT22;501;48.214;11.350;2024-01-16T09:42:55;-0.20;30.20
1025;DHT22;501;48.214;11.350;2024-01-16T09:45:21;-0.10;30.60
1025;DHT22;501;48.214;11.350;2024-01-16T09:47:50;0.00;30.40
1025;DHT22;501;48.214;11.350;2024-01-16T09:50:16;0.10;30.50
1025;DHT22;501;48.214;11.350;2024-01-16T09:52:45;0.10;30.20
1025;DHT22;501;48.214;11.350;2024-01-16T09:55:12;0.20;30.20
1025;DHT22;501;48.214;11.350;2024-01-16T09:57:40;0.20;29.90
1025;DHT22;501;48.214;11.350;2024-01-16T10:00:09;0.30;30.40
1025;DHT22;501;48.214;11.350;2024-01-16T10:02:39;0.40;30.20
1025;DHT22;501;48.214;11.350;2024-01-16T10:05:15;0.50;30.40
1025;DHT22;501;48.214;11.350;2024-01-16T10:07:41;0.60;30.30
1025;DHT22;501;48.214;11.350;2024-01-16T10:10:10;0.70;30.20
1025;DHT22;501;48.214;11.350;2024-01-16T10:12:37;0.80;30.10
1025;DHT22;501;48.214;11.350;2024-01-16T10:15:06;0.90;30.10
1025;DHT22;501;48.214;11.350;2024-01-16T10:17:42;1.00;29.70
1025;DHT22;501;48.214;11.350;2024-01-16T10:20:09;1.00;29.70
1025;DHT22;501;48.214;11.350;2024-01-16T10:22:39;1.10;29.00
1025;DHT22;501;48.214;11.350;2024-01-16T10:25:12;1.20;29.10
1025;DHT22;501;48.214;11.350;2024-01-16T10:27:42;1.20;29.40
1025;DHT22;501;48.214;11.350;2024-01-16T10:30:08;1.30;29.20
1025;DHT22;501;48.214;11.350;2024-01-16T10:32:36;1.30;28.90
1025;DHT22;501;48.214;11.350;2024-01-16T10:37:48;1.40;28.50
1025;DHT22;501;48.214;11.350;2024-01-16T10:42:41;1.50;28.20
1025;DHT22;501;48.214;11.350;2024-01-16T10:45:06;1.50;28.80
1025;DHT22;501;48.214;11.350;2024-01-16T10:47:32;1.60;29.20
1025;DHT22;501;48.214;11.350;2024-01-16T10:50:03;1.60;29.00
1025;DHT22;501;48.214;11.350;2024-01-16T10:52:30;1.70;28.40
1025;DHT22;501;48.214;11.350;2024-01-16T10:55:00;1.80;28.60
1025;DHT22;501;48.214;11.350;2024-01-16T10:57:31;1.80;28.40
1025;DHT22;501;48.214;11.350;2024-01-16T11:00:05;1.80;27.30
1025;DHT22;501;48.214;11.350;2024-01-16T11:02:45;1.90;27.90
1025;DHT22;501;48.214;11.350;2024-01-16T11:05:13;1.90;27.80
1025;DHT22;501;48.214;11.350;2024-01-16T11:07:41;1.90;27.80
1025;DHT22;501;48.214;11.350;2024-01-16T11:10:09;2.00;27.80
1025;DHT22;501;48.214;11.350;2024-01-16T11:12:37;2.10;28.50
1025;DHT22;501;48.214;11.350;2024-01-16T11:15:05;2.20;27.70
1025;DHT22;501;48.214;11.350;2024-01-16T11:17:34;2.20;28.00
1025;DHT22;501;48.214;11.350;2024-01-16T11:20:02;2.30;27.50
1025;DHT22;501;48.214;11.350;2024-01-16T11:22:31;2.30;27.70
1025;DHT22;501;48.214;11.350;2024-01-16T11:25:10;2.40;27.00
1025;DHT22;501;48.214;11.350;2024-01-16T11:27:37;2.30;26.60
1025;DHT22;501;48.214;11.350;2024-01-16T11:30:05;2.30;26.90
1025;DHT22;501;48.214;11.350;2024-01-16T11:32:34;2.30;26.90
1025;DHT22;501;48.214;11.350;2024-01-16T11:35:00;2.30;27.50
1025;DHT22;501;48.214;11.350;2024-01-16T11:37:27;2.30;26.60
1025;DHT22;501;48.214;11.350;2024-01-16T11:42:41;2.30;27.60
1025;DHT22;501;48.214;11.350;2024-01-16T11:48:17;2.50;28.20
1025;DHT22;501;48.214;11.350;2024-01-16T11:50:45;2.50;27.30
1025;DHT22;501;48.214;11.350;2024-01-16T11:53:33;2.50;26.50
1025;DHT22;501;48.214;11.350;2024-01-16T12:01:58;2.40;26.70
1025;DHT22;501;48.214;11.350;2024-01-16T12:04:24;2.50;26.00
1025;DHT22;501;48.214;11.350;2024-01-16T12:07:00;2.50;25.60
1025;DHT22;501;48.214;11.350;2024-01-16T12:09:27;2.60;26.70
1025;DHT22;501;48.214;11.350;2024-01-16T12:12:00;2.70;26.30
1025;DHT22;501;48.214;11.350;2024-01-16T12:14:29;2.80;26.10
1025;DHT22;501;48.214;11.350;2024-01-16T12:17:11;2.80;26.90
1025;DHT22;501;48.214;11.350;2024-01-16T12:19:37;2.90;26.40
1025;DHT22;501;48.214;11.350;2024-01-16T12:22:08;2.90;26.10
1025;DHT22;501;48.214;11.350;2024-01-16T12:24:35;2.90;25.10
1025;DHT22;501;48.214;11.350;2024-01-16T12:27:01;2.90;26.20
1025;DHT22;501;48.214;11.350;2024-01-16T12:29:27;2.90;26.10
1025;DHT22;501;48.214;11.350;2024-01-16T12:32:05;3.00;26.20
1025;DHT22;501;48.214;11.350;2024-01-16T12:34:31;3.00;26.10
1025;DHT22;501;48.214;11.350;2024-01-16T12:37:06;3.00;25.80
1025;DHT22;501;48.214;11.350;2024-01-16T12:39:34;3.00;26.10
1025;DHT22;501;48.214;11.350;2024-01-16T12:42:01;3.10;26.70
1025;DHT22;501;48.214;11.350;2024-01-16T12:44:29;3.20;26.50
1025;DHT22;501;48.214;11.350;2024-01-16T12:46:56;3.30;26.20
1025;DHT22;501;48.214;11.350;2024-01-16T12:49:25;3.30;25.90
1025;DHT22;501;48.214;11.350;2024-01-16T12:51:51;3.40;25.70
1025;DHT22;501;48.214;11.350;2024-01-16T12:54:18;3.40;26.00
1025;DHT22;501;48.214;11.350;2024-01-16T12:56:44;3.40;26.00
1025;DHT22;501;48.214;11.350;2024-01-16T12:59:14;3.40;25.30
1025;DHT22;501;48.214;11.350;2024-01-16T13:01:44;3.40;25.30
1025;DHT22;501;48.214;11.350;2024-01-16T13:04:12;3.40;25.60
1025;DHT22;501;48.214;11.350;2024-01-16T13:06:38;3.40;25.60
1025;DHT22;501;48.214;11.350;2024-01-16T13:09:09;3.40;25.50
1025;DHT22;501;48.214;11.350;2024-01-16T13:11:51;3.40;25.40
1025;DHT22;501;48.214;11.350;2024-01-16T13:14:18;3.40;25.30
1025;DHT22;501;48.214;11.350;2024-01-16T13:16:44;3.40;25.50
1025;DHT22;501;48.214;11.350;2024-01-16T13:19:09;3.30;25.90
1025;DHT22;501;48.214;11.350;2024-01-16T13:21:37;3.30;25.80
1025;DHT22;501;48.214;11.350;2024-01-16T13:24:06;3.30;25.50
1025;DHT22;501;48.214;11.350;2024-01-16T13:26:32;3.30;25.40
1025;DHT22;501;48.214;11.350;2024-01-16T13:28:58;3.30;25.50
1025;DHT22;501;48.214;11.350;2024-01-16T13:31:23;3.30;26.30
1025;DHT22;501;48.214;11.350;2024-01-16T13:33:49;3.30;26.50
1025;DHT22;501;48.214;11.350;2024-01-16T13:36:15;3.30;26.20
1025;DHT22;501;48.214;11.350;2024-01-16T13:38:41;3.20;26.60
1025;DHT22;501;48.214;11.350;2024-01-16T13:41:07;3.20;26.00
1025;DHT22;501;48.214;11.350;2024-01-16T13:43:33;3.20;25.40
1025;DHT22;501;48.214;11.350;2024-01-16T13:46:01;3.20;25.50
1025;DHT22;501;48.214;11.350;2024-01-16T13:48:28;3.20;25.60
1025;DHT22;501;48.214;11.350;2024-01-16T13:50:54;3.20;25.70
1025;DHT22;501;48.214;11.350;2024-01-16T13:53:19;3.10;26.00
1025;DHT22;501;48.214;11.350;2024-01-16T13:55:45;3.10;26.00
1025;DHT22;501;48.214;11.350;2024-01-16T13:58:11;3.10;26.10
1025;DHT22;501;48.214;11.350;2024-01-16T14:00:37;3.00;26.70
1025;DHT22;501;48.214;11.350;2024-01-16T14:03:03;3.00;25.90
1025;DHT22;501;48.214;11.350;2024-01-16T14:05:30;3.00;25.90
1025;DHT22;501;48.214;11.350;2024-01-16T14:07:57;2.90;25.70
1025;DHT22;501;48.214;11.350;2024-01-16T14:10:23;2.90;25.50
1025;DHT22;501;48.214;11.350;2024-01-16T14:12:51;2.80;25.40
1025;DHT22;501;48.214;11.350;2024-01-16T14:15:18;2.80;25.50
1025;DHT22;501;48.214;11.350;2024-01-16T14:17:47;2.70;26.50
1025;DHT22;501;48.214;11.350;2024-01-16T14:20:13;2.70;26.20
1025;DHT22;501;48.214;11.350;2024-01-16T14:22:40;2.60;26.10
1025;DHT22;501;48.214;11.350;2024-01-16T14:25:09;2.60;26.30
1025;DHT22;501;48.214;11.350;2024-01-16T14:28:05;2.60;26.40
1025;DHT22;501;48.214;11.350;2024-01-16T14:30:32;2.50;26.80
1025;DHT22;501;48.214;11.350;2024-01-16T14:32:58;2.50;26.30
1025;DHT22;501;48.214;11.350;2024-01-16T14:35:24;2.40;26.20
1025;DHT22;501;48.214;11.350;2024-01-16T14:37:50;2.40;26.30
1025;DHT22;501;48.214;11.350;2024-01-16T14:40:16;2.30;27.20
1025;DHT22;501;48.214;11.350;2024-01-16T14:42:55;2.30;26.70
1025;DHT22;501;48.214;11.350;2024-01-16T14:45:23;2.30;26.70
1025;DHT22;501;48.214;11.350;2024-01-16T14:47:50;2.20;26.70
1025;DHT22;501;48.214;11.350;2024-01-16T14:50:17;2.10;26.80
1025;DHT22;501;48.214;11.350;2024-01-16T14:52:47;2.10;27.10
1025;DHT22;501;48.214;11.350;2024-01-16T14:55:13;2.00;27.00
1025;DHT22;501;48.214;11.350;2024-01-16T14:57:39;2.00;26.90
1025;DHT22;501;48.214;11.350;2024-01-16T15:00:14;1.90;26.90
1025;DHT22;501;48.214;11.350;2024-01-16T15:02:52;1.90;27.30
1025;DHT22;501;48.214;11.350;2024-01-16T15:05:19;1.80;27.70
1025;DHT22;501;48.214;11.350;2024-01-16T15:07:46;1.80;27.00
1025;DHT22;501;48.214;11.350;2024-01-16T15:10:11;1.70;27.30
1025;DHT22;501;48.214;11.350;2024-01-16T15:12:44;1.70;27.30
1025;DHT22;501;48.214;11.350;2024-01-16T15:15:14;1.70;27.60
1025;DHT22;501;48.214;11.350;2024-01-16T15:17:41;1.70;27.60
1025;DHT22;501;48.214;11.350;2024-01-16T15:20:08;1.70;28.10
1025;DHT22;501;48.214;11.350;2024-01-16T15:22:42;1.70;27.90
1025;DHT22;501;48.214;11.350;2024-01-16T15:25:12;1.70;27.90
1025;DHT22;501;48.214;11.350;2024-01-16T15:27:39;1.70;27.70
1025;DHT22;501;48.214;11.350;2024-01-16T15:30:05;1.70;28.10
1025;DHT22;501;48.214;11.350;2024-01-16T15:32:34;1.70;28.80
1025;DHT22;501;48.214;11.350;2024-01-16T15:35:00;1.60;28.50
1025;DHT22;501;48.214;11.350;2024-01-16T15:37:27;1.60;28.30
1025;DHT22;501;48.214;11.350;2024-01-16T15:39:53;1.50;28.00
1025;DHT22;501;48.214;11.350;2024-01-16T15:42:18;1.50;28.10
1025;DHT22;501;48.214;11.350;2024-01-16T15:44:44;1.50;28.20
1025;DHT22;501;48.214;11.350;2024-01-16T15:47:10;1.40;28.20
1025;DHT22;501;48.214;11.350;2024-01-16T15:49:36;1.40;28.20
1025;DHT22;501;48.214;11.350;2024-01-16T15:52:03;1.30;28.40
1025;DHT22;501;48.214;11.350;2024-01-16T15:54:28;1.30;28.00
1025;DHT22;501;48.214;11.350;2024-01-16T15:56:56;1.20;27.90
1025;DHT22;501;48.214;11.350;2024-01-16T15:59:22;1.20;27.80
1025;DHT22;501;48.214;11.350;2024-01-16T16:01:47;1.10;28.20
1025;DHT22;501;48.214;11.350;2024-01-16T16:04:13;1.10;28.10
1025;DHT22;501;48.214;11.350;2024-01-16T16:06:39;1.00;28.50
1025;DHT22;501;48.214;11.350;2024-01-16T16:09:06;1.00;28.10
1025;DHT22;501;48.214;11.350;2024-01-16T16:11:37;0.90;28.20
1025;DHT22;501;48.214;11.350;2024-01-16T16:14:15;0.90;28.70
1025;DHT22;501;48.214;11.350;2024-01-16T16:16:42;0.90;28.80
1025;DHT22;501;48.214;11.350;2024-01-16T16:19:08;0.90;28.50
1025;DHT22;501;48.214;11.350;2024-01-16T16:21:34;0.80;28.50
1025;DHT22;501;48.214;11.350;2024-01-16T16:24:00;0.80;28.50